createdAt,value
2019-03-16T00:02:11.776Z,5.40
2019-03-16T00:04:41.047Z,6.03
2019-03-16T00:07:10.388Z,6.90
2019-03-16T00:09:39.659Z,6.37
2019-03-16T00:12:08.938Z,8.47
2019-03-16T00:14:38.232Z,5.93
2019-03-16T00:17:07.456Z,7.60
2019-03-16T00:19:36.724Z,9.60
2019-03-16T00:22:06.604Z,7.30
2019-03-16T00:24:35.841Z,8.10
2019-03-16T00:27:05.118Z,6.30
2019-03-16T00:29:34.378Z,6.97
2019-03-16T00:32:12.918Z,6.93
2019-03-16T00:34:34.622Z,10.40
2019-03-16T00:37:03.889Z,7.17
2019-03-16T00:39:33.144Z,9.30
2019-03-16T00:42:02.437Z,9.90
2019-03-16T00:44:31.666Z,6.90
2019-03-16T00:47:00.955Z,5.50
2019-03-16T00:49:30.169Z,6.43
2019-03-16T00:51:59.413Z,6.97
2019-03-16T00:54:28.673Z,5.53
2019-03-16T00:56:57.919Z,6.27
2019-03-16T00:59:27.202Z,5.73
2019-03-16T01:01:56.442Z,7.30
2019-03-16T01:04:25.686Z,6.30
2019-03-16T01:06:55.044Z,8.03
2019-03-16T01:09:24.295Z,6.80
2019-03-16T01:11:53.562Z,7.80
2019-03-16T01:14:22.822Z,6.27
2019-03-16T01:16:52.082Z,8.37
2019-03-16T01:19:21.338Z,8.80
2019-03-16T01:21:50.962Z,7.00
2019-03-16T01:24:20.206Z,9.97
2019-03-16T01:26:49.475Z,7.63
2019-03-16T01:29:19.026Z,8.40
2019-03-16T01:31:48.267Z,8.30
2019-03-16T01:34:17.584Z,6.57
2019-03-16T01:36:46.861Z,6.80
2019-03-16T01:39:16.110Z,10.53
2019-03-16T01:41:45.335Z,8.03
2019-03-16T01:44:14.587Z,6.13
2019-03-16T01:46:43.840Z,6.63
2019-03-16T01:49:13.082Z,7.83
2019-03-16T01:51:42.319Z,6.97
2019-03-16T01:54:11.701Z,9.40
2019-03-16T01:56:41.212Z,7.77
2019-03-16T01:59:10.485Z,7.10
2019-03-16T02:01:39.711Z,6.57
2019-03-16T02:04:08.963Z,7.90
2019-03-16T02:06:38.226Z,6.33
2019-03-16T02:09:08.090Z,12.30
2019-03-16T02:11:37.346Z,8.80
2019-03-16T02:14:06.583Z,7.70
2019-03-16T02:16:35.925Z,7.33
2019-03-16T02:19:05.204Z,10.13
2019-03-16T02:21:34.569Z,7.63
2019-03-16T02:24:03.922Z,8.60
2019-03-16T02:26:33.179Z,8.03
2019-03-16T02:29:02.437Z,6.97
2019-03-16T02:31:31.690Z,9.60
2019-03-16T02:34:00.930Z,11.20
2019-03-16T02:36:30.188Z,9.17
2019-03-16T02:38:59.448Z,10.13
2019-03-16T02:41:28.662Z,8.07
2019-03-16T02:43:57.903Z,7.40
2019-03-16T02:46:27.181Z,7.17
2019-03-16T02:48:56.433Z,12.40
2019-03-16T02:51:25.764Z,5.97
2019-03-16T02:53:55.020Z,5.87
2019-03-16T02:56:24.264Z,9.50
2019-03-16T02:58:53.541Z,10.10
2019-03-16T03:01:22.794Z,6.77
2019-03-16T03:03:52.018Z,8.10
2019-03-16T03:06:21.265Z,8.20
2019-03-16T03:08:50.610Z,8.63
2019-03-16T03:11:19.935Z,4.83
2019-03-16T03:13:49.178Z,8.80
2019-03-16T03:16:18.407Z,5.80
2019-03-16T03:18:49.610Z,5.40
2019-03-16T03:21:18.603Z,5.10
2019-03-16T03:23:47.854Z,5.53
2019-03-16T03:26:17.085Z,5.87
2019-03-16T03:28:46.344Z,7.33
2019-03-16T03:31:15.583Z,6.57
2019-03-16T03:34:02.117Z,5.47
2019-03-16T03:36:15.806Z,7.67
2019-03-16T03:38:45.050Z,5.23
2019-03-16T03:41:14.297Z,6.07
2019-03-16T03:43:43.645Z,4.30
2019-03-16T03:46:12.899Z,4.00
2019-03-16T03:48:42.163Z,6.77
2019-03-16T03:51:11.397Z,4.87
2019-03-16T03:53:41.303Z,7.63
2019-03-16T03:56:10.865Z,3.87
2019-03-16T03:58:40.130Z,4.40
2019-03-16T04:01:09.373Z,6.80
2019-03-16T04:03:38.605Z,4.57
2019-03-16T04:06:07.857Z,3.93
2019-03-16T04:08:37.159Z,6.07
2019-03-16T04:11:06.703Z,5.10
2019-03-16T04:13:35.986Z,4.03
2019-03-16T04:16:05.285Z,3.80
2019-03-16T04:18:34.565Z,2.60
2019-03-16T04:21:03.794Z,3.00
2019-03-16T04:23:33.049Z,5.63
2019-03-16T04:26:02.283Z,2.23
2019-03-16T04:28:31.532Z,3.47
2019-03-16T04:31:00.795Z,5.80
2019-03-16T04:33:30.016Z,5.53
2019-03-16T04:35:59.249Z,4.30
2019-03-16T04:38:28.523Z,4.87
2019-03-16T04:40:58.049Z,4.37
2019-03-16T04:43:27.283Z,3.97
2019-03-16T04:45:56.543Z,2.70
2019-03-16T04:48:25.786Z,3.27
2019-03-16T04:50:55.019Z,4.17
2019-03-16T04:53:24.287Z,2.83
2019-03-16T04:55:53.526Z,3.13
2019-03-16T04:58:22.781Z,2.40
2019-03-16T05:00:52.039Z,3.57
2019-03-16T05:03:21.279Z,2.77
2019-03-16T05:05:50.507Z,2.90
2019-03-16T05:08:19.754Z,4.93
2019-03-16T05:10:48.987Z,6.23
2019-03-16T05:13:18.367Z,4.30
2019-03-16T05:15:50.702Z,3.93
2019-03-16T05:18:18.564Z,4.10
2019-03-16T05:20:47.834Z,3.87
2019-03-16T05:23:17.058Z,4.27
2019-03-16T05:25:46.277Z,4.00
2019-03-16T05:28:15.527Z,4.60
2019-03-16T05:30:44.756Z,3.67
2019-03-16T05:33:13.979Z,4.17
2019-03-16T05:35:43.210Z,3.90
2019-03-16T05:38:12.441Z,4.47
2019-03-16T05:40:41.656Z,4.60
2019-03-16T05:43:10.907Z,3.80
2019-03-16T05:45:40.158Z,4.57
2019-03-16T05:48:09.673Z,4.20
2019-03-16T05:50:38.889Z,3.53
2019-03-16T05:53:08.132Z,4.23
2019-03-16T05:55:37.432Z,3.67
2019-03-16T05:58:06.670Z,5.03
2019-03-16T06:00:35.958Z,6.37
2019-03-16T06:03:05.261Z,4.93
2019-03-16T06:05:34.524Z,4.90
2019-03-16T06:08:03.779Z,3.90
2019-03-16T06:10:33.032Z,4.47
2019-03-16T06:13:02.315Z,4.40
2019-03-16T06:15:31.622Z,4.53
2019-03-16T06:18:00.882Z,6.00
2019-03-16T06:20:30.121Z,5.73
2019-03-16T06:22:59.381Z,5.63
2019-03-16T06:25:28.624Z,6.50
2019-03-16T06:27:57.886Z,4.33
2019-03-16T06:30:27.116Z,4.10
2019-03-16T06:32:56.331Z,5.23
2019-03-16T06:35:29.292Z,4.43
2019-03-16T06:37:56.616Z,4.80
2019-03-16T06:40:25.854Z,5.53
2019-03-16T06:42:55.112Z,4.20
2019-03-16T06:45:24.538Z,3.57
2019-03-16T06:47:54.915Z,4.50
2019-03-16T06:50:24.313Z,3.00
2019-03-16T06:52:53.566Z,2.17
2019-03-16T06:55:22.822Z,2.63
2019-03-16T06:57:52.047Z,2.10
2019-03-16T07:00:21.601Z,2.20
2019-03-16T07:02:50.862Z,1.93
2019-03-16T07:05:23.521Z,1.90
2019-03-16T07:07:51.124Z,1.50
2019-03-16T07:10:20.411Z,2.97
2019-03-16T07:12:49.653Z,1.73
2019-03-16T07:15:18.880Z,1.90
2019-03-16T07:17:48.116Z,1.73
2019-03-16T07:20:17.384Z,1.97
2019-03-16T07:22:46.643Z,2.63
2019-03-16T07:25:15.912Z,2.33
2019-03-16T07:27:45.449Z,1.53
2019-03-16T07:30:14.807Z,2.50
2019-03-16T07:32:44.024Z,1.77
2019-03-16T07:35:13.270Z,5.33
2019-03-16T07:37:42.540Z,0.97
2019-03-16T07:40:12.129Z,1.47
2019-03-16T07:42:41.426Z,2.20
2019-03-16T07:45:10.660Z,2.63
2019-03-16T07:47:39.902Z,2.08
2019-03-16T07:50:09.305Z,1.70
2019-03-16T07:52:38.596Z,1.30
2019-03-16T07:55:09.513Z,1.47
2019-03-16T07:57:40.638Z,1.23
2019-03-16T08:00:09.904Z,2.00
2019-03-16T08:02:39.186Z,3.43
2019-03-16T08:05:18.080Z,1.10
2019-03-16T08:07:39.503Z,2.10
2019-03-16T08:10:09.093Z,1.53
2019-03-16T08:12:38.439Z,3.83
2019-03-16T08:15:07.719Z,2.17
2019-03-16T08:17:36.980Z,4.07
2019-03-16T08:20:06.390Z,1.60
2019-03-16T08:22:35.667Z,2.30
2019-03-16T08:25:05.713Z,1.57
2019-03-16T08:27:34.969Z,1.00
2019-03-16T08:30:04.669Z,1.97
2019-03-16T08:32:33.995Z,2.53
2019-03-16T08:35:03.270Z,1.27
2019-03-16T08:37:32.552Z,0.90
2019-03-16T08:40:01.847Z,1.87
2019-03-16T08:42:31.170Z,1.00
2019-03-16T08:45:02.954Z,1.60
2019-03-16T08:47:32.205Z,0.80
2019-03-16T08:50:01.549Z,1.30
2019-03-16T08:52:30.805Z,1.20
2019-03-16T08:55:00.464Z,1.73
2019-03-16T08:57:29.801Z,0.97
2019-03-16T08:59:59.066Z,0.97
2019-03-16T09:02:28.656Z,0.97
2019-03-16T09:04:57.925Z,1.30
2019-03-16T09:07:27.163Z,0.90
2019-03-16T09:09:56.463Z,1.23
2019-03-16T09:12:25.795Z,1.30
2019-03-16T09:14:55.071Z,1.10
2019-03-16T09:17:24.330Z,1.20
2019-03-16T09:19:55.437Z,1.90
2019-03-16T09:22:25.024Z,1.67
2019-03-16T09:24:54.265Z,1.73
2019-03-16T09:27:31.061Z,1.17
2019-03-16T09:29:54.574Z,1.67
2019-03-16T09:32:23.853Z,2.53
2019-03-16T09:34:53.190Z,1.98
2019-03-16T09:37:22.479Z,1.67
2019-03-16T09:39:54.469Z,0.90
2019-03-16T09:42:23.783Z,0.80
2019-03-16T09:44:53.029Z,1.10
2019-03-16T09:47:22.294Z,1.43
2019-03-16T09:49:51.565Z,0.90
2019-03-16T09:52:20.865Z,1.00
2019-03-16T09:54:50.155Z,3.07
2019-03-16T09:57:19.902Z,2.17
2019-03-16T09:59:49.195Z,1.43
2019-03-16T10:02:18.466Z,1.83
2019-03-16T10:04:47.778Z,2.03
2019-03-16T10:07:17.098Z,2.17
2019-03-16T10:09:46.441Z,1.83
2019-03-16T10:12:15.707Z,3.00
2019-03-16T10:14:45.027Z,2.17
2019-03-16T10:17:14.310Z,2.87
2019-03-16T10:19:43.588Z,2.50
2019-03-16T10:22:12.843Z,1.83
2019-03-16T10:24:42.122Z,1.87
2019-03-16T10:27:11.426Z,1.87
2019-03-16T10:29:40.733Z,3.90
2019-03-16T10:32:09.983Z,3.07
2019-03-16T10:34:39.228Z,2.07
2019-03-16T10:37:08.536Z,2.53
2019-03-16T10:39:37.812Z,2.90
2019-03-16T10:42:07.135Z,3.37
2019-03-16T10:44:36.409Z,2.53
2019-03-16T10:47:05.755Z,2.43
2019-03-16T10:49:35.047Z,3.87
2019-03-16T10:52:04.318Z,2.17
2019-03-16T10:54:33.659Z,3.20
2019-03-16T10:57:04.377Z,3.77
2019-03-16T10:59:34.063Z,4.30
2019-03-16T11:02:03.343Z,3.83
2019-03-16T11:04:32.669Z,1.60
2019-03-16T11:07:02.018Z,2.97
2019-03-16T11:09:31.269Z,3.43
2019-03-16T11:12:00.611Z,1.63
2019-03-16T11:14:29.869Z,1.90
2019-03-16T11:16:59.147Z,1.93
2019-03-16T11:19:28.466Z,2.07
2019-03-16T11:21:57.772Z,4.00
2019-03-16T11:24:27.034Z,2.13
2019-03-16T11:26:56.362Z,1.87
2019-03-16T11:29:25.661Z,2.33
2019-03-16T11:31:55.061Z,2.87
2019-03-16T11:34:24.382Z,3.13
2019-03-16T11:36:53.679Z,2.70
2019-03-16T11:39:23.014Z,1.60
2019-03-16T11:41:52.319Z,1.40
2019-03-16T11:44:21.702Z,1.60
2019-03-16T11:46:51.003Z,3.43
2019-03-16T11:49:20.279Z,1.53
2019-03-16T11:51:49.559Z,2.00
2019-03-16T11:54:18.838Z,1.17
2019-03-16T11:56:48.083Z,1.00
2019-03-16T11:59:21.831Z,1.20
2019-03-16T12:01:48.411Z,2.30
2019-03-16T12:04:17.685Z,1.73
2019-03-16T12:06:47.192Z,0.90
2019-03-16T12:09:16.519Z,1.50
2019-03-16T12:11:45.820Z,1.50
2019-03-16T12:14:15.161Z,1.00
2019-03-16T12:16:44.431Z,1.83
2019-03-16T12:19:13.695Z,1.03
2019-03-16T12:21:43.028Z,1.30
2019-03-16T12:24:12.282Z,1.00
2019-03-16T12:26:41.622Z,2.03
2019-03-16T12:29:10.923Z,1.37
2019-03-16T12:31:40.207Z,2.60
2019-03-16T12:34:09.531Z,1.33
2019-03-16T12:36:38.775Z,1.60
2019-03-16T12:39:09.043Z,2.70
2019-03-16T12:41:38.337Z,1.43
2019-03-16T12:44:07.683Z,2.50
2019-03-16T12:46:36.991Z,2.03
2019-03-16T12:49:06.299Z,3.20
2019-03-16T12:51:36.013Z,1.87
2019-03-16T12:54:05.404Z,1.87
2019-03-16T12:56:34.700Z,2.27
2019-03-16T12:59:10.423Z,1.90
2019-03-16T13:01:34.984Z,1.70
2019-03-16T13:04:04.254Z,2.53
2019-03-16T13:06:33.826Z,1.87
2019-03-16T13:09:03.890Z,2.77
2019-03-16T13:11:33.224Z,2.63
2019-03-16T13:14:02.629Z,1.60
2019-03-16T13:16:31.905Z,2.67
2019-03-16T13:19:01.192Z,2.40
2019-03-16T13:21:30.527Z,2.50
2019-03-16T13:23:59.787Z,2.97
2019-03-16T13:26:29.078Z,2.13
2019-03-16T13:28:58.351Z,2.17
2019-03-16T13:31:27.691Z,2.47
2019-03-16T13:33:56.955Z,3.23
2019-03-16T13:36:26.317Z,1.80
2019-03-16T13:38:55.655Z,1.63
2019-03-16T13:41:24.970Z,2.00
2019-03-16T13:43:54.235Z,4.10
2019-03-16T13:46:23.555Z,2.13
2019-03-16T13:48:52.838Z,2.67
2019-03-16T13:51:22.291Z,3.30
2019-03-16T13:53:51.675Z,3.20
2019-03-16T13:56:20.979Z,2.93
2019-03-16T13:58:50.411Z,4.37
2019-03-16T14:01:19.719Z,2.30
2019-03-16T14:03:49.000Z,3.13
2019-03-16T14:06:18.296Z,3.10
2019-03-16T14:08:47.708Z,4.00
2019-03-16T14:11:17.064Z,3.33
2019-03-16T14:13:46.432Z,2.03
2019-03-16T14:16:15.994Z,4.12
2019-03-16T14:18:45.289Z,2.77
2019-03-16T14:21:14.695Z,3.63
2019-03-16T14:23:45.402Z,3.17
2019-03-16T14:26:14.661Z,4.30
2019-03-16T14:28:43.984Z,2.93
2019-03-16T14:31:13.279Z,4.90
2019-03-16T14:33:42.621Z,2.87
2019-03-16T14:36:12.027Z,2.47
2019-03-16T14:38:41.607Z,3.47
2019-03-16T14:41:10.896Z,2.83
2019-03-16T14:43:40.244Z,2.93
2019-03-16T14:46:09.604Z,2.07
2019-03-16T14:48:39.009Z,3.43
2019-03-16T14:51:08.295Z,2.87
2019-03-16T14:53:37.851Z,2.97
2019-03-16T14:56:07.142Z,3.07
2019-03-16T14:58:36.428Z,4.13
2019-03-16T15:01:05.713Z,3.90
2019-03-16T15:03:34.999Z,3.43
2019-03-16T15:06:04.311Z,3.77
2019-03-16T15:08:33.589Z,4.43
2019-03-16T15:11:02.946Z,2.50
2019-03-16T15:13:32.288Z,2.00
2019-03-16T15:16:01.576Z,3.03
2019-03-16T15:18:30.907Z,2.57
2019-03-16T15:21:00.186Z,3.63
2019-03-16T15:23:29.483Z,3.60
2019-03-16T15:25:58.737Z,2.57
2019-03-16T15:28:28.008Z,2.33
2019-03-16T15:30:57.321Z,3.23
2019-03-16T15:33:26.625Z,2.67
2019-03-16T15:35:55.892Z,2.60
2019-03-16T15:38:25.204Z,2.27
2019-03-16T15:40:59.918Z,2.40
2019-03-16T15:43:29.275Z,2.23
2019-03-16T15:45:58.542Z,2.73
2019-03-16T15:48:27.852Z,2.10
2019-03-16T15:50:57.155Z,2.63
2019-03-16T15:53:26.419Z,2.67
2019-03-16T15:55:55.678Z,3.30
2019-03-16T15:58:24.957Z,4.37
2019-03-16T16:01:03.523Z,2.00
2019-03-16T16:03:25.331Z,3.57
2019-03-16T16:05:54.640Z,3.30
2019-03-16T16:08:23.937Z,5.43
2019-03-16T16:11:00.932Z,3.43
2019-03-16T16:13:24.221Z,1.97
2019-03-16T16:15:53.602Z,3.07
2019-03-16T16:18:22.870Z,3.00
2019-03-16T16:20:52.153Z,2.33
2019-03-16T16:23:21.477Z,3.43
2019-03-16T16:25:50.758Z,2.53
2019-03-16T16:28:20.080Z,3.07
2019-03-16T16:30:49.500Z,3.30
2019-03-16T16:33:18.874Z,3.80
2019-03-16T16:35:48.169Z,5.27
2019-03-16T16:38:17.445Z,2.73
2019-03-16T16:40:46.883Z,3.47
2019-03-16T16:43:16.152Z,4.20
2019-03-16T16:45:46.735Z,4.43
2019-03-16T16:48:16.393Z,3.73
2019-03-16T16:50:45.671Z,3.43
2019-03-16T16:53:14.979Z,3.90
2019-03-16T16:55:44.324Z,4.47
2019-03-16T16:58:13.648Z,5.67
2019-03-16T17:00:42.984Z,4.57
2019-03-16T17:03:12.292Z,4.10
2019-03-16T17:05:43.388Z,5.70
2019-03-16T17:08:12.643Z,2.90
2019-03-16T17:10:41.948Z,5.07
2019-03-16T17:13:11.224Z,2.87
2019-03-16T17:15:40.529Z,4.13
2019-03-16T17:18:09.834Z,5.13
2019-03-16T17:20:39.155Z,3.03
2019-03-16T17:23:08.448Z,6.20
2019-03-16T17:25:37.726Z,3.87
2019-03-16T17:28:07.242Z,3.83
2019-03-16T17:30:36.529Z,4.77
2019-03-16T17:33:05.798Z,3.10
2019-03-16T17:35:35.127Z,5.87
2019-03-16T17:38:04.474Z,7.30
2019-03-16T17:40:33.766Z,6.60
2019-03-16T17:43:03.045Z,4.37
2019-03-16T17:45:32.373Z,3.83
2019-03-16T17:48:01.667Z,3.83
2019-03-16T17:50:31.025Z,8.33
2019-03-16T17:53:00.659Z,5.83
2019-03-16T17:55:29.953Z,6.00
2019-03-16T17:57:59.247Z,4.87
2019-03-16T18:00:28.543Z,4.13
2019-03-16T18:02:57.827Z,4.10
2019-03-16T18:05:27.116Z,4.40
2019-03-16T18:07:56.429Z,3.63
2019-03-16T18:10:25.724Z,6.03
2019-03-16T18:12:55.068Z,5.83
2019-03-16T18:15:24.375Z,5.63
2019-03-16T18:17:53.803Z,7.93
2019-03-16T18:20:23.109Z,4.63
2019-03-16T18:22:52.443Z,4.40
2019-03-16T18:25:21.745Z,7.23
2019-03-16T18:27:51.076Z,4.00
2019-03-16T18:30:20.423Z,4.07
2019-03-16T18:32:49.719Z,5.20
2019-03-16T18:35:19.070Z,4.47
2019-03-16T18:37:48.427Z,6.37
2019-03-16T18:40:17.867Z,4.07
2019-03-16T18:42:47.207Z,5.20
2019-03-16T18:45:16.835Z,3.80
2019-03-16T18:47:46.203Z,4.00
2019-03-16T18:50:15.510Z,3.93
2019-03-16T18:52:44.831Z,4.90
2019-03-16T18:55:14.124Z,4.33
2019-03-16T18:57:43.440Z,2.50
2019-03-16T19:00:13.730Z,11.20
2019-03-16T19:02:43.138Z,6.80
2019-03-16T19:05:12.447Z,7.07
2019-03-16T19:07:41.958Z,7.70
2019-03-16T19:10:11.933Z,4.80
2019-03-16T19:12:41.241Z,8.47
2019-03-16T19:15:12.641Z,7.50
2019-03-16T19:17:42.102Z,4.73
2019-03-16T19:20:12.208Z,5.53
2019-03-16T19:22:41.644Z,4.30
2019-03-16T19:25:12.555Z,4.77
2019-03-16T19:27:41.966Z,2.30
2019-03-16T19:30:13.823Z,5.43
2019-03-16T19:32:43.294Z,3.73
2019-03-16T19:35:12.711Z,3.03
2019-03-16T19:37:42.054Z,3.77
2019-03-16T19:40:11.695Z,3.63
2019-03-16T19:42:41.216Z,6.03
2019-03-16T19:45:12.821Z,3.10
2019-03-16T19:47:42.087Z,4.70
2019-03-16T19:50:11.596Z,3.80
2019-03-16T19:52:40.846Z,3.90
2019-03-16T19:55:12.263Z,3.47
2019-03-16T19:57:41.536Z,4.53
2019-03-16T20:00:13.133Z,4.20
2019-03-16T20:02:50.271Z,4.17
2019-03-16T20:05:14.120Z,3.53
2019-03-16T20:07:43.408Z,4.27
2019-03-16T20:10:13.764Z,3.53
2019-03-16T20:12:43.152Z,5.23
2019-03-16T20:15:13.073Z,2.80
2019-03-16T20:17:42.638Z,3.73
2019-03-16T20:20:13.231Z,3.60
2019-03-16T20:22:42.843Z,4.87
2019-03-16T20:25:13.327Z,2.20
2019-03-16T20:27:42.641Z,3.07
2019-03-16T20:30:12.145Z,4.90
2019-03-16T20:32:41.485Z,4.28
2019-03-16T20:35:12.040Z,3.43
2019-03-16T20:37:41.364Z,3.47
2019-03-16T20:40:12.511Z,3.30
2019-03-16T20:42:42.630Z,4.27
2019-03-16T20:45:13.825Z,2.33
2019-03-16T20:47:43.622Z,6.97
2019-03-16T20:50:13.087Z,2.30
2019-03-16T20:52:42.483Z,2.93
2019-03-16T20:55:11.914Z,2.87
2019-03-16T20:57:41.329Z,2.10
2019-03-16T21:00:11.068Z,3.07
2019-03-16T21:02:40.382Z,3.10
2019-03-16T21:05:09.962Z,2.97
2019-03-16T21:07:39.308Z,2.43
2019-03-16T21:10:08.827Z,2.20
2019-03-16T21:12:38.278Z,2.70
2019-03-16T21:15:08.578Z,3.50
2019-03-16T21:17:37.908Z,2.47
2019-03-16T21:20:08.939Z,2.60
2019-03-16T21:22:39.135Z,3.87
2019-03-16T21:25:09.318Z,2.10
2019-03-16T21:27:38.738Z,2.23
2019-03-16T21:30:09.814Z,4.40
2019-03-16T21:32:39.151Z,3.60
2019-03-16T21:35:08.750Z,2.77
2019-03-16T21:37:38.157Z,2.47
2019-03-16T21:40:07.789Z,2.97
2019-03-16T21:42:37.033Z,2.40
2019-03-16T21:45:06.576Z,3.73
2019-03-16T21:47:35.945Z,3.10
2019-03-16T21:50:05.622Z,2.80
2019-03-16T21:52:34.931Z,3.93
2019-03-16T21:55:04.614Z,3.53
2019-03-16T21:57:33.913Z,2.93
2019-03-16T22:00:03.210Z,2.97
2019-03-16T22:02:32.492Z,2.50
2019-03-16T22:05:01.826Z,3.07
2019-03-16T22:07:31.107Z,3.17
2019-03-16T22:10:00.412Z,1.97
2019-03-16T22:12:29.792Z,2.80
2019-03-16T22:14:59.095Z,2.23
2019-03-16T22:17:28.393Z,2.87
2019-03-16T22:19:57.652Z,2.77
2019-03-16T22:22:27.220Z,2.33
2019-03-16T22:24:56.498Z,2.03
2019-03-16T22:27:25.814Z,1.97
2019-03-16T22:29:55.170Z,2.63
2019-03-16T22:32:24.403Z,2.93
2019-03-16T22:34:53.671Z,3.77
2019-03-16T22:37:22.959Z,2.00
2019-03-16T22:39:52.273Z,1.90
2019-03-16T22:42:21.584Z,2.00
2019-03-16T22:44:50.866Z,2.53
2019-03-16T22:47:20.258Z,2.13
2019-03-16T22:49:49.531Z,1.60
2019-03-16T22:52:18.800Z,1.63
2019-03-16T22:54:48.087Z,2.00
2019-03-16T22:57:17.364Z,2.50
2019-03-16T22:59:46.646Z,2.60
2019-03-16T23:02:15.908Z,1.70
2019-03-16T23:04:45.241Z,4.63
2019-03-16T23:07:14.527Z,2.97
2019-03-16T23:09:43.786Z,2.13
2019-03-16T23:12:13.162Z,2.50
2019-03-16T23:14:42.425Z,1.97
2019-03-16T23:17:11.693Z,2.30
2019-03-16T23:19:41.014Z,2.50
2019-03-16T23:22:10.348Z,3.20
2019-03-16T23:24:39.658Z,1.87
2019-03-16T23:27:08.985Z,1.90
2019-03-16T23:29:38.293Z,1.57
2019-03-16T23:32:07.580Z,1.90
2019-03-16T23:34:36.839Z,1.97
2019-03-16T23:37:06.160Z,2.60
2019-03-16T23:39:35.451Z,1.60
2019-03-16T23:42:04.782Z,2.97
2019-03-16T23:44:34.070Z,1.87
2019-03-16T23:47:03.762Z,2.57
2019-03-16T23:49:33.046Z,1.90
2019-03-16T23:52:02.342Z,2.60
2019-03-16T23:54:31.609Z,2.87
2019-03-16T23:57:03.904Z,1.80
2019-03-16T23:59:33.266Z,2.40
